Time;durP1;ratioP1;P1;durP2;ratioP2;P2;SDS_P1;SDS_P2;PMS_P1;PMS_P2;Temp;Humidity;BMP_temperature;BMP_pressure;BME280_temperature;BME280_humidity;BME280_pressure;Samples;Min_cycle;Max_cycle;Signal;HPM_P1;HPM_P2
2023/03/05 00:00:09;;;;;;;1.43;1.33;;;;;;;7.67;55.09;101642.16;6201234;28;20611;-73
2023/03/05 00:03:34;;;;;;;2.30;2.07;;;;;;;7.50;55.83;101644.19;6184657;28;20237;-73
2023/03/05 00:06:55;;;;;;;2.40;2.07;;;;;;;7.45;55.71;101639.13;6189790;28;20224;-74
2023/03/05 00:10:16;;;;;;;1.33;1.23;;;;;;;7.64;54.94;101642.34;6207133;28;20253;-73
2023/03/05 00:13:37;;;;;;;2.20;0.97;;;;;;;7.44;55.61;101633.84;6197450;28;20228;-73
2023/03/05 00:16:59;;;;;;;1.23;0.93;;;;;;;7.30;56.05;101626.69;6195236;28;20683;-73
2023/03/05 00:20:20;;;;;;;3.53;2.40;;;;;;;7.45;55.64;101624.88;6207002;28;20241;-74
2023/03/05 00:23:41;;;;;;;1.90;1.80;;;;;;;7.52;55.49;101620.81;6194193;28;20232;-73
2023/03/05 00:27:02;;;;;;;1.10;1.00;;;;;;;7.18;56.01;101614.91;6195628;28;20221;-73
2023/03/05 00:30:24;;;;;;;1.17;1.10;;;;;;;7.36;55.48;101629.00;6218102;28;20591;-73
2023/03/05 00:33:51;;;;;;;5.83;1.63;;;;;;;6.99;56.34;101621.50;6204754;28;20229;-74
2023/03/05 00:37:12;;;;;;;7.83;2.27;;;;;;;7.08;56.70;101629.00;6204131;28;20233;-73
2023/03/05 00:40:35;;;;;;;2.63;1.40;;;;;;;6.87;57.81;101628.50;6202794;28;20718;-73
2023/03/05 00:43:56;;;;;;;5.87;0.87;;;;;;;7.24;57.97;101622.56;6209206;28;20229;-73
2023/03/05 00:47:17;;;;;;;1.87;1.13;;;;;;;7.59;57.45;101620.34;6199767;28;20232;-74
2023/03/05 00:50:39;;;;;;;1.53;0.80;;;;;;;7.22;60.06;101616.44;6210191;28;20262;-74
2023/03/05 00:54:00;;;;;;;5.07;2.50;;;;;;;6.91;62.52;101608.59;6191699;28;20228;-73
2023/03/05 00:57:21;;;;;;;1.50;1.27;;;;;;;6.96;63.79;101601.13;6183360;28;20490;-73
2023/03/05 01:00:42;;;;;;;5.03;2.43;;;;;;;6.83;64.24;101599.28;6211717;28;22206;-73
2023/03/05 01:04:03;;;;;;;1.43;1.33;;;;;;;6.79;65.04;101592.41;6206680;28;20238;-73
2023/03/05 01:07:25;;;;;;;2.90;1.20;;;;;;;7.05;64.21;101583.63;6197622;28;20225;-74
2023/03/05 01:10:46;;;;;;;0.90;0.80;;;;;;;7.16;64.31;101590.03;6199166;28;20232;-73
2023/03/05 01:14:07;;;;;;;2.00;1.87;;;;;;;7.07;64.35;101589.75;6205167;28;20221;-73
2023/03/05 01:17:28;;;;;;;1.10;0.83;;;;;;;7.00;64.93;101583.03;6209257;28;20255;-74
2023/03/05 01:20:48;;;;;;;2.80;1.23;;;;;;;6.98;65.94;101575.09;6208206;28;20241;-74
2023/03/05 01:24:12;;;;;;;3.80;2.83;;;;;;;7.07;66.06;101571.81;6208733;28;20232;-74
2023/03/05 01:27:32;;;;;;;3.77;1.93;;;;;;;7.07;66.35;101571.81;6193433;28;20229;-73
2023/03/05 01:30:53;;;;;;;2.13;1.27;;;;;;;6.95;67.00;101569.06;6219375;28;20308;-74
2023/03/05 01:34:14;;;;;;;5.20;1.70;;;;;;;6.93;67.46;101570.97;6201395;28;20226;-74
2023/03/05 01:37:35;;;;;;;4.60;1.90;;;;;;;7.25;66.27;101567.13;6195637;28;20481;-73
2023/03/05 01:40:57;;;;;;;2.83;1.77;;;;;;;7.09;67.19;101564.53;6203009;28;20401;-73
2023/03/05 01:44:21;;;;;;;3.77;2.73;;;;;;;7.00;67.23;101556.22;6203659;28;20245;-73
2023/03/05 01:47:43;;;;;;;3.17;2.83;;;;;;;7.40;66.15;101547.38;6204180;28;20251;-75
2023/03/05 01:51:04;;;;;;;2.37;2.03;;;;;;;7.11;66.94;101545.69;6207356;28;20230;-73
2023/03/05 01:54:30;;;;;;;2.23;2.03;;;;;;;7.29;67.00;101533.78;6203405;28;20237;-73
2023/03/05 01:57:55;;;;;;;5.23;2.00;;;;;;;6.98;68.23;101540.25;6209862;28;20221;-72
2023/03/05 02:01:16;;;;;;;3.13;1.40;;;;;;;7.01;68.16;101541.84;6195197;28;20615;-73
2023/03/05 02:04:42;;;;;;;3.83;1.43;;;;;;;7.25;67.19;101534.94;6207006;28;20229;-74
2023/03/05 02:08:06;;;;;;;2.83;1.53;;;;;;;7.16;67.53;101540.88;6171292;28;20222;-74
2023/03/05 02:11:27;;;;;;;12.53;4.67;;;;;;;6.71;69.27;101517.88;6211480;28;20229;-73
2023/03/05 02:14:57;;;;;;;4.10;1.73;;;;;;;6.78;69.18;101527.22;6210574;28;20648;-73
2023/03/05 02:18:19;;;;;;;1.13;1.03;;;;;;;6.68;69.92;101518.06;6197507;28;20564;-74
2023/03/05 02:21:45;;;;;;;2.20;1.53;;;;;;;6.85;69.58;101514.31;6202103;28;20224;-73
2023/03/05 02:25:18;;;;;;;1.17;1.07;;;;;;;6.40;71.42;101510.84;6217799;28;20254;-72
2023/03/05 02:28:42;;;;;;;2.13;1.10;;;;;;;6.34;71.49;101508.56;6209637;28;20249;-75
2023/03/05 02:32:03;;;;;;;1.70;1.20;;;;;;;6.28;71.48;101497.34;6201234;28;20672;-74
2023/03/05 02:35:25;;;;;;;3.03;1.87;;;;;;;6.67;70.16;101500.28;6217945;28;20229;-73
2023/03/05 02:38:48;;;;;;;1.67;1.47;;;;;;;6.42;71.03;101495.56;6207152;28;20237;-73
2023/03/05 02:42:10;;;;;;;2.27;1.30;;;;;;;6.19;71.99;101490.78;6203388;28;20257;-73
2023/03/05 02:45:32;;;;;;;1.10;1.10;;;;;;;6.64;70.75;101497.78;6213278;28;20344;-74
2023/03/05 02:48:53;;;;;;;0.70;0.70;;;;;;;6.69;69.64;101498.34;6198594;28;20249;-74
2023/03/05 02:52:13;;;;;;;5.20;1.33;;;;;;;6.80;68.96;101495.00;6197899;28;20241;-73
2023/03/05 02:55:36;;;;;;;1.13;1.10;;;;;;;6.56;69.76;101494.72;6193098;28;20637;-74
2023/03/05 02:58:57;;;;;;;0.90;0.90;;;;;;;6.33;70.84;101495.28;6196247;28;20217;-74
2023/03/05 03:02:20;;;;;;;1.00;0.80;;;;;;;6.47;70.65;101487.25;6209806;28;21832;-73
2023/03/05 03:05:41;;;;;;;2.20;1.40;;;;;;;6.56;69.85;101483.13;6198533;28;20622;-73
2023/03/05 03:09:02;;;;;;;4.80;1.30;;;;;;;6.75;69.52;101481.91;6194784;28;20233;-74
2023/03/05 03:12:25;;;;;;;4.50;1.23;;;;;;;6.64;69.62;101470.97;6197044;28;22282;-74
2023/03/05 03:15:46;;;;;;;1.93;1.20;;;;;;;6.12;71.58;101467.13;6209153;28;20253;-73
2023/03/05 03:19:07;;;;;;;1.03;0.80;;;;;;;6.46;70.13;101464.13;6199601;28;20327;-73
2023/03/05 03:22:28;;;;;;;3.07;2.47;;;;;;;6.63;69.23;101445.16;6208910;28;20645;-72
2023/03/05 03:25:49;;;;;;;2.47;1.60;;;;;;;6.43;70.69;101438.38;6209073;28;20236;-73
2023/03/05 03:29:11;;;;;;;1.83;1.10;;;;;;;6.30;70.03;101433.91;6210411;28;20666;-74
2023/03/05 03:32:33;;;;;;;1.30;1.20;;;;;;;6.29;70.88;101446.41;6190510;28;20233;-73
2023/03/05 03:35:54;;;;;;;1.00;0.97;;;;;;;6.47;69.74;101437.22;6204238;28;20233;-74
2023/03/05 03:39:16;;;;;;;1.10;1.00;;;;;;;6.59;69.25;101435.59;6202563;28;20241;-73
2023/03/05 03:42:37;;;;;;;1.67;1.57;;;;;;;6.61;69.02;101435.50;6204571;28;20217;-73
2023/03/05 03:45:59;;;;;;;0.93;0.93;;;;;;;6.67;68.40;101432.44;6213706;28;20233;-73
2023/03/05 03:49:22;;;;;;;2.00;1.10;;;;;;;6.48;68.67;101430.06;6205156;28;20237;-74
2023/03/05 03:52:43;;;;;;;2.03;1.17;;;;;;;6.37;69.39;101428.06;6204469;28;20224;-74
2023/03/05 03:56:05;;;;;;;2.63;1.33;;;;;;;6.32;68.89;101418.59;6212894;28;20232;-74
2023/03/05 03:59:25;;;;;;;1.63;1.23;;;;;;;6.16;68.99;101423.16;6206841;28;20537;-74
2023/03/05 04:02:48;;;;;;;2.13;1.20;;;;;;;6.38;68.36;101419.06;6204554;28;20220;-74
2023/03/05 04:06:08;;;;;;;1.23;1.00;;;;;;;6.32;68.34;101421.28;6207345;28;20229;-73
2023/03/05 04:09:29;;;;;;;1.43;1.33;;;;;;;6.36;68.39;101414.78;6214355;28;20562;-75
2023/03/05 04:12:50;;;;;;;1.63;1.53;;;;;;;6.56;67.57;101405.47;6196896;28;20229;-74
2023/03/05 04:16:11;;;;;;;2.53;1.20;;;;;;;6.50;67.86;101409.41;6209175;28;20697;-73
2023/03/05 04:19:33;;;;;;;4.20;2.97;;;;;;;6.28;68.36;101411.69;6203330;28;20748;-74
2023/03/05 04:22:54;;;;;;;4.17;1.57;;;;;;;6.34;68.11;101409.50;6210744;28;20239;-73
2023/03/05 04:26:15;;;;;;;1.67;1.57;;;;;;;6.21;68.35;101405.88;6200894;28;20245;-73
2023/03/05 04:29:36;;;;;;;2.27;1.27;;;;;;;6.41;68.00;101405.47;6204326;28;20229;-73
2023/03/05 04:32:58;;;;;;;3.27;1.40;;;;;;;6.53;67.56;101401.16;6198187;28;20228;-74
2023/03/05 04:36:20;;;;;;;3.23;2.40;;;;;;;6.29;67.97;101403.59;6197835;28;20224;-73
2023/03/05 04:39:41;;;;;;;0.90;0.90;;;;;;;6.68;67.08;101405.53;6215674;28;20236;-73
2023/03/05 04:43:02;;;;;;;8.00;1.20;;;;;;;6.68;66.66;101397.50;6208894;28;20960;-73
2023/03/05 04:46:23;;;;;;;1.40;1.30;;;;;;;6.71;66.46;101388.41;6202993;28;20225;-73
2023/03/05 04:49:45;;;;;;;2.13;1.00;;;;;;;6.78;66.42;101395.09;6215372;28;20232;-73
2023/03/05 04:53:07;;;;;;;1.57;0.90;;;;;;;6.43;67.03;101378.59;6194802;28;20248;-74
2023/03/05 04:56:28;;;;;;;2.83;0.90;;;;;;;6.39;68.18;101375.28;6201088;28;20233;-74
2023/03/05 04:59:49;;;;;;;1.90;1.80;;;;;;;6.15;69.19;101362.56;6220634;28;20249;-74
2023/03/05 05:03:13;;;;;;;2.20;1.33;;;;;;;6.36;69.01;101367.41;6201971;28;20232;-73
2023/03/05 05:06:34;;;;;;;2.20;2.07;;;;;;;6.65;67.98;101370.94;6199211;28;20778;-74
2023/03/05 05:09:56;;;;;;;0.63;0.63;;;;;;;6.00;71.03;101359.03;6215624;28;20229;-73
2023/03/05 05:13:17;;;;;;;2.90;2.50;;;;;;;6.40;69.69;101360.06;6192349;28;20232;-73
2023/03/05 05:16:37;;;;;;;2.03;1.57;;;;;;;6.25;69.63;101358.34;6197023;28;20235;-73
2023/03/05 05:19:58;;;;;;;2.50;1.30;;;;;;;6.60;68.47;101356.97;6211803;28;20225;-74
2023/03/05 05:23:20;;;;;;;3.43;0.93;;;;;;;6.33;69.50;101359.59;6208638;28;20326;-73
2023/03/05 05:26:41;;;;;;;0.80;0.80;;;;;;;6.26;69.60;101354.72;6196818;28;20256;-73
2023/03/05 05:30:03;;;;;;;1.23;1.13;;;;;;;6.17;69.98;101347.28;6206155;28;20228;-73
2023/03/05 05:33:24;;;;;;;4.77;1.47;;;;;;;5.72;72.12;101342.91;6194176;28;20598;-74
2023/03/05 05:36:45;;;;;;;1.50;1.40;;;;;;;6.15;69.99;101344.69;6202686;28;20229;-74
2023/03/05 05:40:09;;;;;;;0.90;0.90;;;;;;;6.25;69.41;101345.84;6210849;28;20229;-74
2023/03/05 05:43:31;;;;;;;2.03;1.07;;;;;;;6.50;68.93;101345.13;6214727;28;20249;-73
2023/03/05 05:46:52;;;;;;;1.10;1.00;;;;;;;6.52;68.15;101345.88;6199442;28;20244;-74
2023/03/05 05:50:13;;;;;;;1.50;1.40;;;;;;;6.52;67.97;101339.66;6207484;28;20650;-74
2023/03/05 05:53:34;;;;;;;1.07;1.07;;;;;;;6.59;67.62;101346.34;6195140;28;20233;-74
2023/03/05 05:56:55;;;;;;;1.40;1.10;;;;;;;6.53;67.95;101344.91;6209349;28;20241;-73
2023/03/05 06:00:18;;;;;;;8.43;2.30;;;;;;;6.63;67.68;101346.06;6215624;28;20225;-74
2023/03/05 06:03:39;;;;;;;2.57;1.00;;;;;;;6.15;68.92;101342.00;6188307;28;20229;-74
2023/03/05 06:07:00;;;;;;;1.63;1.40;;;;;;;6.17;68.99;101340.13;6207354;28;20240;-73
2023/03/05 06:10:21;;;;;;;2.37;1.43;;;;;;;6.13;68.88;101335.88;6218447;28;20461;-74
2023/03/05 06:13:42;;;;;;;2.70;2.50;;;;;;;6.43;68.20;101338.44;6212715;28;20750;-74
2023/03/05 06:17:04;;;;;;;0.50;0.50;;;;;;;6.43;67.79;101346.47;6199449;28;20633;-75
2023/03/05 06:20:25;;;;;;;3.60;1.27;;;;;;;6.47;67.96;101340.81;6213289;28;20229;-74
2023/03/05 06:23:47;;;;;;;4.00;0.80;;;;;;;6.41;68.18;101345.72;6206058;28;20224;-73
2023/03/05 06:27:08;;;;;;;1.77;0.97;;;;;;;6.38;68.11;101349.44;6209143;28;20236;-74
2023/03/05 06:30:29;;;;;;;1.50;1.50;;;;;;;6.64;66.72;101345.09;6217649;28;20229;-73
2023/03/05 06:33:51;;;;;;;0.97;0.67;;;;;;;6.53;66.47;101341.41;6212313;28;20459;-74
2023/03/05 06:37:12;;;;;;;1.67;1.00;;;;;;;6.36;66.87;101342.47;6206147;28;20236;-73
2023/03/05 06:40:34;;;;;;;1.17;1.00;;;;;;;6.18;67.61;101347.16;6216931;28;20221;-74
2023/03/05 06:43:57;;;;;;;0.70;0.70;;;;;;;6.05;67.18;101338.19;6196654;28;20316;-73
2023/03/05 06:47:18;;;;;;;2.77;2.07;;;;;;;6.21;67.28;101346.13;6210927;28;20245;-73
2023/03/05 06:50:40;;;;;;;2.00;0.50;;;;;;;6.09;67.63;101342.38;6205091;28;20229;-74
2023/03/05 06:54:04;;;;;;;1.07;1.03;;;;;;;5.82;68.86;101338.72;6194604;28;20229;-74
2023/03/05 06:57:25;;;;;;;1.93;0.77;;;;;;;5.94;68.94;101345.19;6198667;28;20238;-74
2023/03/05 07:00:46;;;;;;;0.87;0.83;;;;;;;6.42;67.61;101345.59;6206797;28;20229;-74
2023/03/05 07:04:07;;;;;;;8.20;1.23;;;;;;;6.17;67.98;101339.25;6205987;28;20549;-73
2023/03/05 07:07:29;;;;;;;1.00;0.80;;;;;;;6.57;67.26;101349.09;6202601;28;20234;-74
2023/03/05 07:10:50;;;;;;;0.67;0.63;;;;;;;6.84;66.74;101349.16;6210315;28;20237;-74
2023/03/05 07:14:13;;;;;;;0.83;0.80;;;;;;;6.19;69.90;101340.88;6216619;28;20233;-73
2023/03/05 07:17:34;;;;;;;1.73;1.63;;;;;;;6.24;70.22;101335.22;6199567;28;20591;-74
2023/03/05 07:20:55;;;;;;;2.50;0.87;;;;;;;6.67;68.40;101344.03;6205376;28;20256;-75
2023/03/05 07:24:17;;;;;;;0.70;0.50;;;;;;;6.62;69.09;101338.09;6202139;28;20233;-74
2023/03/05 07:27:39;;;;;;;0.67;0.67;;;;;;;6.47;68.73;101338.16;6195738;28;20623;-74
2023/03/05 07:31:02;;;;;;;0.80;0.80;;;;;;;6.40;69.27;101336.81;6201062;28;20257;-74
2023/03/05 07:34:23;;;;;;;0.97;0.97;;;;;;;6.70;68.03;101331.28;6203939;28;20253;-73
2023/03/05 07:37:44;;;;;;;2.80;1.43;;;;;;;6.78;68.12;101341.53;6209104;28;20277;-73
2023/03/05 07:41:08;;;;;;;2.60;1.63;;;;;;;6.86;68.25;101336.50;6205633;28;20311;-73
2023/03/05 07:44:29;;;;;;;4.33;1.33;;;;;;;6.54;69.21;101343.97;6201806;28;20232;-74
2023/03/05 07:47:50;;;;;;;1.40;0.73;;;;;;;6.38;69.31;101337.88;6205406;28;20319;-73
2023/03/05 07:51:15;;;;;;;2.47;1.03;;;;;;;6.90;68.27;101341.56;6204635;28;20229;-73
2023/03/05 07:54:38;;;;;;;1.53;0.80;;;;;;;6.38;69.55;101329.84;6207027;28;20221;-73
2023/03/05 07:58:01;;;;;;;3.70;1.20;;;;;;;6.65;68.69;101324.53;6180706;28;20233;-73
2023/03/05 08:01:22;;;;;;;4.27;0.93;;;;;;;6.62;68.01;101327.38;6198895;28;20240;-74
2023/03/05 08:04:43;;;;;;;1.43;1.10;;;;;;;6.69;67.26;101326.03;6212633;28;20241;-74
2023/03/05 08:08:04;;;;;;;1.67;1.00;;;;;;;6.86;66.11;101318.59;6206637;28;20532;-73
2023/03/05 08:11:25;;;;;;;0.70;0.70;;;;;;;6.71;66.72;101324.13;6195319;28;20237;-74
2023/03/05 08:14:47;;;;;;;0.97;0.90;;;;;;;7.09;65.45;101312.56;6203887;28;20224;-73
2023/03/05 08:18:08;;;;;;;2.00;1.20;;;;;;;7.10;65.00;101306.25;6192614;28;20229;-73
2023/03/05 08:21:32;;;;;;;3.03;2.73;;;;;;;6.97;65.38;101302.66;6195556;28;20351;-73
2023/03/05 08:24:53;;;;;;;1.90;1.80;;;;;;;7.10;64.83;101298.22;6220118;28;20237;-74
2023/03/05 08:28:15;;;;;;;3.60;1.70;;;;;;;6.98;65.15;101301.72;6204101;28;20232;-73
2023/03/05 08:31:38;;;;;;;2.07;1.97;;;;;;;7.51;62.93;101290.00;6191728;28;20232;-73
2023/03/05 08:35:01;;;;;;;2.53;1.90;;;;;;;7.52;62.63;101293.53;6204539;28;20252;-74
2023/03/05 08:38:22;;;;;;;2.30;1.13;;;;;;;7.59;62.21;101294.84;6209164;28;20315;-73
2023/03/05 08:41:42;;;;;;;3.60;1.33;;;;;;;7.77;61.45;101283.66;6179924;28;22114;-74
2023/03/05 08:45:04;;;;;;;2.10;1.00;;;;;;;7.85;61.43;101283.97;6205883;28;21017;-74
2023/03/05 08:48:26;;;;;;;3.70;1.10;;;;;;;8.46;60.21;101284.97;6203341;28;20248;-73
2023/03/05 08:51:47;;;;;;;4.00;1.33;;;;;;;8.47;59.43;101281.31;6187149;28;20221;-73
2023/03/05 08:55:08;;;;;;;5.53;1.20;;;;;;;8.17;58.16;101280.81;6211403;28;20236;-74
2023/03/05 08:58:29;;;;;;;0.90;0.83;;;;;;;7.93;57.76;101281.59;6186568;28;20236;-73
2023/03/05 09:01:50;;;;;;;2.20;2.00;;;;;;;8.33;57.45;101268.00;6178753;28;20233;-74
2023/03/05 09:05:13;;;;;;;1.90;0.90;;;;;;;9.06;55.36;101261.53;6187493;28;21005;-74
2023/03/05 09:08:35;;;;;;;1.17;0.60;;;;;;;9.32;53.50;101251.47;6181943;28;20335;-73
2023/03/05 09:11:57;;;;;;;0.80;0.80;;;;;;;9.07;52.55;101248.97;6179061;28;20233;-73
2023/03/05 09:15:19;;;;;;;2.10;1.27;;;;;;;9.15;53.95;101257.28;6180859;28;20224;-71
2023/03/05 09:18:40;;;;;;;2.40;1.00;;;;;;;9.24;53.84;101254.75;6176616;28;20543;-73
2023/03/05 09:22:05;;;;;;;0.90;0.90;;;;;;;9.19;53.09;101248.00;6179625;28;20630;-74
2023/03/05 09:25:27;;;;;;;1.30;1.03;;;;;;;9.34;62.23;101253.09;6199932;28;20491;-77
2023/03/05 09:28:47;;;;;;;0.80;0.80;;;;;;;9.87;55.10;101250.66;6195276;28;20225;-72
2023/03/05 09:32:08;;;;;;;1.47;0.83;;;;;;;10.59;57.51;101238.47;6187227;28;20256;-75
2023/03/05 09:35:29;;;;;;;1.20;1.10;;;;;;;10.45;58.93;101232.38;6203284;28;20233;-74
2023/03/05 09:38:53;;;;;;;4.35;3.15;;;;;;;10.91;53.67;101242.88;6191069;28;21029;-73
2023/03/05 09:42:44;;;;;;;1.70;1.53;;;;;;;11.54;52.19;101224.84;6187099;28;21262;-70
2023/03/05 09:46:18;;;;;;;17.43;10.87;;;;;;;12.57;52.45;101219.13;6210497;28;20225;-69
2023/03/05 09:49:50;;;;;;;20.73;18.97;;;;;;;12.83;47.92;101214.84;6206320;28;20237;-74
2023/03/05 09:53:21;;;;;;;24.93;10.93;;;;;;;11.88;49.88;101223.63;6216323;28;20232;-69
2023/03/05 09:56:48;;;;;;;10.43;6.17;;;;;;;10.86;57.90;101222.69;6210090;28;20237;-70
2023/03/05 10:00:26;;;;;;;5.00;3.93;;;;;;;10.53;53.63;101229.06;6209973;28;20442;-71
2023/03/05 10:03:56;;;;;;;2.43;2.23;;;;;;;10.09;52.22;101234.50;6201820;28;20599;-72
2023/03/05 10:07:21;;;;;;;1.27;1.07;;;;;;;9.75;53.77;101239.06;6204444;28;20260;-70
2023/03/05 10:10:47;;;;;;;2.90;0.90;;;;;;;9.27;56.24;101243.75;6205370;28;20237;-71
2023/03/05 10:14:14;;;;;;;1.70;1.60;;;;;;;9.01;57.02;101250.28;6205939;28;20226;-70
2023/03/05 10:17:50;;;;;;;1.30;1.20;;;;;;;8.90;58.15;101250.25;6208706;28;20225;-71
2023/03/05 10:21:15;;;;;;;2.30;1.67;;;;;;;8.51;58.14;101248.72;6219241;28;20764;-72
2023/03/05 10:24:48;;;;;;;1.10;1.10;;;;;;;8.01;59.83;101238.97;6222283;28;20229;-70
2023/03/05 10:28:18;;;;;;;1.90;1.23;;;;;;;8.47;59.81;101227.59;6205551;28;20232;-73
2023/03/05 10:31:53;;;;;;;3.97;1.17;;;;;;;9.38;57.42;101232.16;6205730;28;20536;-72
2023/03/05 10:35:25;;;;;;;2.03;1.33;;;;;;;9.54;56.67;101224.59;6211920;28;20229;-71
2023/03/05 10:39:09;;;;;;;1.50;1.17;;;;;;;9.63;55.79;101216.66;6206782;28;20225;-72
2023/03/05 10:42:38;;;;;;;2.10;1.07;;;;;;;9.49;56.73;101218.75;6218061;28;20440;-71
2023/03/05 10:46:04;;;;;;;1.23;1.20;;;;;;;10.36;55.03;101208.03;6207541;28;20612;-72
2023/03/05 10:49:30;;;;;;;1.80;1.70;;;;;;;18.70;37.11;101189.44;6210378;28;20228;-71
2023/03/05 10:53:05;;;;;;;0.80;0.80;;;;;;;20.39;31.90;101182.28;6210030;28;20229;-72
2023/03/05 10:56:28;;;;;;;0.83;0.80;;;;;;;22.57;28.98;101179.19;6197951;28;20319;-71
2023/03/05 10:59:52;;;;;;;3.42;0.70;;;;;;;21.28;30.37;101184.50;6225488;28;20502;-72
2023/03/05 11:03:14;;;;;;;1.90;0.90;;;;;;;22.17;28.63;101169.94;6217840;28;20838;-72
2023/03/05 11:06:40;;;;;;;0.55;0.55;;;;;;;18.69;32.26;101172.19;6202245;28;20259;-72
2023/03/05 11:10:06;;;;;;;0.63;0.50;;;;;;;18.81;33.53;101165.28;6222568;28;20562;-73
2023/03/05 11:13:28;;;;;;;3.22;1.58;;;;;;;19.23;32.44;101155.72;6215641;28;20224;-73
2023/03/05 11:16:50;;;;;;;5.30;2.03;;;;;;;15.74;37.96;101165.75;6200928;28;20517;-73
2023/03/05 11:20:31;;;;;;;1.20;0.80;;;;;;;13.73;41.36;101164.69;6214311;28;20249;-74
2023/03/05 11:24:12;;;;;;;2.80;1.63;;;;;;;13.44;49.91;101163.94;6214435;28;20321;-75
2023/03/05 11:27:36;;;;;;;1.87;0.70;;;;;;;12.22;49.85;101157.47;6196114;28;20236;-73
2023/03/05 11:31:19;;;;;;;5.03;1.83;;;;;;;12.34;44.94;101158.19;6199680;28;20229;-75
2023/03/05 11:34:40;;;;;;;0.60;0.60;;;;;;;18.60;33.32;101131.47;6207991;28;20229;-76
2023/03/05 11:38:07;;;;;;;0.80;0.80;;;;;;;19.28;29.78;101137.69;6205295;28;20746;-75
2023/03/05 11:41:34;;;;;;;0.50;0.50;;;;;;;19.28;29.54;101126.75;6206393;28;20237;-77
2023/03/05 11:44:55;;;;;;;0.83;0.83;;;;;;;15.60;33.35;101125.59;6215822;28;20232;-76
2023/03/05 11:48:24;;;;;;;1.90;0.70;;;;;;;13.63;37.51;101143.06;6218590;28;20256;-75
2023/03/05 11:51:53;;;;;;;4.40;1.33;;;;;;;12.15;40.42;101126.56;6203492;28;20311;-77
2023/03/05 11:55:17;;;;;;;0.90;0.90;;;;;;;11.27;41.91;101125.53;6215427;28;20626;-77
2023/03/05 11:58:46;;;;;;;2.63;1.37;;;;;;;12.40;41.28;101119.75;6202874;28;20224;-75
2023/03/05 12:02:18;;;;;;;0.70;0.67;;;;;;;13.00;41.34;101113.16;6212871;28;20220;-77
2023/03/05 12:05:44;;;;;;;0.73;0.73;;;;;;;15.06;37.68;101097.72;6219301;28;20224;-77
2023/03/05 12:09:13;;;;;;;1.30;1.30;;;;;;;18.14;30.66;101085.00;6204339;28;20233;-78
2023/03/05 12:12:41;;;;;;;1.50;1.10;;;;;;;15.54;33.77;101088.19;6205128;28;20225;-77
2023/03/05 12:16:12;;;;;;;1.57;1.27;;;;;;;13.52;37.73;101099.91;6210530;28;20275;-76
2023/03/05 12:19:41;;;;;;;1.00;0.73;;;;;;;13.77;38.28;101082.06;6214912;28;20229;-77
2023/03/05 12:23:02;;;;;;;2.13;1.20;;;;;;;13.10;39.38;101078.84;6199204;28;20615;-77
2023/03/05 12:26:54;;;;;;;1.53;0.90;;;;;;;14.30;37.12;101063.19;6202706;28;20225;-76
2023/03/05 12:30:55;;;;;;;1.10;1.10;;;;;;;12.88;40.00;101065.59;6216277;28;20225;-77
2023/03/05 12:34:55;;;;;;;1.73;0.60;;;;;;;11.51;40.69;101061.28;6214456;28;20583;-76
2023/03/05 12:38:27;;;;;;;1.37;0.50;;;;;;;11.23;41.92;101051.25;6202219;28;20221;-76
2023/03/05 12:41:48;;;;;;;2.70;0.60;;;;;;;11.13;41.77;101053.03;6205956;28;20245;-77
2023/03/05 12:45:40;;;;;;;0.70;0.70;;;;;;;10.62;40.37;101061.13;6214847;28;20233;-77
2023/03/05 12:49:28;;;;;;;0.57;0.57;;;;;;;10.66;39.53;101057.19;6203270;28;20253;-76
2023/03/05 12:52:54;;;;;;;0.50;0.50;;;;;;;10.16;40.05;101055.25;6200817;28;20312;-76
2023/03/05 12:56:19;;;;;;;0.87;0.63;;;;;;;10.56;40.21;101048.19;6214256;28;20593;-76
2023/03/05 12:59:45;;;;;;;1.77;0.97;;;;;;;10.45;39.30;101043.72;6221235;28;20308;-76
2023/03/05 13:03:10;;;;;;;0.70;0.50;;;;;;;10.19;40.34;101041.53;6212199;28;20232;-75
2023/03/05 13:06:33;;;;;;;0.60;0.60;;;;;;;9.91;41.29;101056.41;6206561;28;20233;-76
2023/03/05 13:09:57;;;;;;;1.60;1.00;;;;;;;10.23;41.78;101040.28;6221211;28;20237;-75
2023/03/05 13:13:18;;;;;;;0.90;0.63;;;;;;;10.58;41.35;101037.25;6196904;28;20312;-76
2023/03/05 13:16:39;;;;;;;2.23;0.70;;;;;;;9.87;43.55;101040.63;6200123;28;20384;-79
2023/03/05 13:20:04;;;;;;;3.80;1.03;;;;;;;9.84;44.77;101027.44;6200927;28;20272;-78
2023/03/05 13:23:27;;;;;;;1.37;1.27;;;;;;;10.33;44.03;101022.34;6202090;28;20570;-75
2023/03/05 13:26:49;;;;;;;0.57;0.53;;;;;;;11.39;43.02;101027.28;6200520;28;20249;-72
2023/03/05 13:30:24;;;;;;;0.90;0.90;;;;;;;11.47;42.68;101011.28;6210565;28;20229;-73
2023/03/05 13:33:54;;;;;;;0.90;0.57;;;;;;;12.17;40.22;101011.06;6211409;28;20252;-73
2023/03/05 13:37:17;;;;;;;4.03;0.90;;;;;;;14.89;35.22;100992.78;6201180;28;20253;-75
2023/03/05 13:40:40;;;;;;;1.20;1.10;;;;;;;15.25;34.42;100984.47;6213590;28;20244;-74
2023/03/05 13:44:02;;;;;;;0.97;0.83;;;;;;;15.78;33.09;100979.53;6218456;28;20221;-73
2023/03/05 13:47:27;;;;;;;2.03;0.97;;;;;;;12.72;38.46;100985.91;6201986;28;20311;-74
2023/03/05 13:50:55;;;;;;;0.50;0.50;;;;;;;13.01;39.14;100990.38;6214790;28;20225;-76
2023/03/05 13:54:17;;;;;;;0.60;0.60;;;;;;;12.07;40.22;100994.00;6181794;28;20698;-74
2023/03/05 13:57:41;;;;;;;0.80;0.70;;;;;;;11.55;41.17;100991.66;6199846;28;20619;-71
2023/03/05 14:01:13;;;;;;;1.13;0.80;;;;;;;10.93;42.60;100991.91;6211260;28;20236;-71
2023/03/05 14:04:36;;;;;;;2.30;1.90;;;;;;;10.12;44.74;100976.53;6215880;28;20237;-76
2023/03/05 14:07:57;;;;;;;0.87;0.77;;;;;;;10.28;44.83;100984.19;6216931;28;20232;-74
2023/03/05 14:11:19;;;;;;;1.13;1.03;;;;;;;10.02;45.43;100986.34;6199819;28;20225;-74
2023/03/05 14:14:43;;;;;;;1.07;1.07;;;;;;;9.98;45.57;100984.91;6222277;28;20230;-74
2023/03/05 14:18:17;;;;;;;0.70;0.70;;;;;;;10.22;45.29;100972.06;6198628;28;20220;-73
2023/03/05 14:21:47;;;;;;;2.77;0.80;;;;;;;10.27;44.91;100966.28;6195900;28;20639;-72
2023/03/05 14:25:27;;;;;;;1.50;0.70;;;;;;;9.78;47.26;100974.13;6214036;28;20324;-75
2023/03/05 14:28:53;;;;;;;1.83;0.83;;;;;;;9.79;47.73;100973.97;6218968;28;20233;-72
2023/03/05 14:32:30;;;;;;;0.77;0.60;;;;;;;9.76;47.60;100958.09;6199948;28;20229;-72
2023/03/05 14:35:52;;;;;;;1.70;0.70;;;;;;;9.93;47.53;100959.38;6215726;28;20278;-71
2023/03/05 14:39:42;;;;;;;28.23;1.70;;;;;;;10.05;48.12;100948.41;6202686;28;20234;-73
2023/03/05 14:43:04;;;;;;;1.57;1.10;;;;;;;10.36;47.38;100955.59;6210759;28;20239;-73
2023/03/05 14:46:25;;;;;;;2.87;1.23;;;;;;;9.95;46.59;100946.63;6200096;28;20225;-72
2023/03/05 14:49:46;;;;;;;1.90;1.73;;;;;;;9.90;46.62;100936.25;6209874;28;20560;-74
2023/03/05 14:53:15;;;;;;;2.10;0.63;;;;;;;9.91;45.86;100929.03;6211629;28;20240;-74
2023/03/05 14:56:35;;;;;;;0.57;0.57;;;;;;;9.68;45.81;100933.63;6202724;28;20240;-74
2023/03/05 14:59:56;;;;;;;1.17;0.50;;;;;;;9.89;45.25;100925.63;6211291;28;20256;-72
2023/03/05 15:03:19;;;;;;;3.13;1.67;;;;;;;8.99;47.69;100928.75;6192778;28;20237;-74
2023/03/05 15:06:45;;;;;;;0.80;0.80;;;;;;;9.09;49.04;100922.47;6196091;28;20319;-74
2023/03/05 15:10:08;;;;;;;1.23;0.77;;;;;;;9.51;48.36;100926.16;6220729;28;20229;-72
2023/03/05 15:13:30;;;;;;;3.23;1.00;;;;;;;9.28;48.72;100919.13;6214594;28;20244;-71
2023/03/05 15:16:51;;;;;;;0.77;0.73;;;;;;;9.04;51.26;100910.38;6198219;28;20245;-70
2023/03/05 15:20:15;;;;;;;2.63;1.23;;;;;;;9.03;51.75;100906.84;6197839;28;20248;-73
2023/03/05 15:23:37;;;;;;;2.67;1.13;;;;;;;9.10;51.20;100915.25;6211398;28;20229;-72
2023/03/05 15:26:59;;;;;;;2.60;1.27;;;;;;;9.17;51.40;100903.88;6200194;28;20253;-72
2023/03/05 15:30:25;;;;;;;0.80;0.80;;;;;;;8.89;53.63;100906.28;6205064;28;20261;-73
2023/03/05 15:33:45;;;;;;;1.63;0.80;;;;;;;9.01;52.92;100906.09;6200886;28;20641;-73
2023/03/05 15:37:07;;;;;;;1.40;0.97;;;;;;;9.13;52.85;100901.56;6207457;28;20248;-74
2023/03/05 15:40:29;;;;;;;0.77;0.70;;;;;;;8.90;53.91;100902.59;6218389;28;20287;-74
2023/03/05 15:43:51;;;;;;;1.97;1.80;;;;;;;9.13;53.76;100899.75;6195191;28;20232;-70
2023/03/05 15:47:12;;;;;;;2.70;1.10;;;;;;;9.38;53.06;100894.03;6203892;28;20605;-70
2023/03/05 15:50:34;;;;;;;3.57;1.47;;;;;;;9.18;53.79;100888.59;6218032;28;20459;-71
2023/03/05 15:53:56;;;;;;;0.80;0.80;;;;;;;9.56;53.07;100883.53;6215865;28;20396;-70
2023/03/05 15:57:21;;;;;;;1.00;0.90;;;;;;;9.15;53.78;100878.09;6189597;28;20360;-71